Time;durP1;ratioP1;P1;durP2;ratioP2;P2;SDS_P1;SDS_P2;PMS_P1;PMS_P2;Temp;Humidity;BMP_temperature;BMP_pressure;BME280_temperature;BME280_humidity;BME280_pressure;Samples;Min_cycle;Max_cycle;Signal;HPM_P1;HPM_P2
2023/09/11 00:01:24;;;;;;;;;;;;;;;19.01;100.00;96528.19;5086569;28;19956;-78
2023/09/11 00:03:49;;;;;;;;;;;;;;;18.99;100.00;96521.56;5104259;28;19984;-72
2023/09/11 00:06:15;;;;;;;;;;;;;;;18.95;100.00;96515.97;5104807;28;20250;-78
2023/09/11 00:08:41;;;;;;;;;;;;;;;18.94;100.00;96516.25;5086492;28;19953;-77
2023/09/11 00:11:07;;;;;;;;;;;;;;;18.92;100.00;96513.88;5086563;28;20238;-78
2023/09/11 00:13:33;;;;;;;;;;;;;;;18.89;100.00;96509.09;5104548;28;19960;-78
2023/09/11 00:15:59;;;;;;;;;;;;;;;18.85;100.00;96511.47;5104821;28;19961;-78
2023/09/11 00:18:25;;;;;;;;;;;;;;;18.82;100.00;96514.69;5104571;28;19967;-78
2023/09/11 00:20:51;;;;;;;;;;;;;;;18.80;100.00;96513.38;5104434;28;20002;-78
2023/09/11 00:23:17;;;;;;;;;;;;;;;18.76;100.00;96510.41;5106557;28;19960;-77
2023/09/11 00:25:43;;;;;;;;;;;;;;;18.74;100.00;96507.22;5073720;28;20128;-72
2023/09/11 00:28:09;;;;;;;;;;;;;;;18.70;100.00;96500.84;5090332;28;19964;-72
2023/09/11 00:30:38;;;;;;;;;;;;;;;18.66;100.00;96513.88;5108467;28;19951;-72
2023/09/11 00:33:04;;;;;;;;;;;;;;;18.63;100.00;96503.78;5089874;28;19976;-72
2023/09/11 00:35:30;;;;;;;;;;;;;;;18.62;100.00;96501.41;5108365;28;19961;-72
2023/09/11 00:37:56;;;;;;;;;;;;;;;18.59;100.00;96505.38;5108320;28;19969;-72
2023/09/11 00:40:22;;;;;;;;;;;;;;;18.57;100.00;96499.53;5108407;28;19993;-71
2023/09/11 00:42:47;;;;;;;;;;;;;;;18.56;100.00;96510.44;5108401;28;19995;-78
2023/09/11 00:45:13;;;;;;;;;;;;;;;18.53;100.00;96501.16;5090229;28;20220;-78
2023/09/11 00:47:40;;;;;;;;;;;;;;;18.50;100.00;96501.69;5108224;28;19959;-78
2023/09/11 00:50:07;;;;;;;;;;;;;;;18.47;100.00;96504.88;5107841;28;19950;-78
2023/09/11 00:52:33;;;;;;;;;;;;;;;18.43;100.00;96493.97;5107815;28;19961;-78
2023/09/11 00:54:59;;;;;;;;;;;;;;;18.42;100.00;96491.59;5107861;28;19949;-78
2023/09/11 00:57:25;;;;;;;;;;;;;;;18.38;100.00;96490.53;5107809;28;19970;-77
2023/09/11 00:59:51;;;;;;;;;;;;;;;18.34;100.00;96492.94;5107865;28;19958;-72
2023/09/11 01:02:17;;;;;;;;;;;;;;;18.32;100.00;96486.28;5089657;28;19957;-70
2023/09/11 01:04:43;;;;;;;;;;;;;;;18.31;100.00;96490.00;5089651;28;19949;-70
2023/09/11 01:07:09;;;;;;;;;;;;;;;18.29;100.00;96489.47;5107725;28;20229;-70
2023/09/11 01:09:35;;;;;;;;;;;;;;;18.28;100.00;96487.88;5107465;28;19980;-70
2023/09/11 01:12:01;;;;;;;;;;;;;;;18.23;100.00;96478.88;5107673;28;19956;-70
2023/09/11 01:14:27;;;;;;;;;;;;;;;18.21;100.00;96480.19;5089693;28;19999;-70
2023/09/11 01:17:13;;;;;;;;;;;;;;;18.20;100.00;96481.25;5089111;28;20133;-70
2023/09/11 01:20:08;;;;;;;;;;;;;;;18.16;100.00;96483.63;5107503;28;19953;-71
2023/09/11 01:23:12;;;;;;;;;;;;;;;18.14;100.00;96482.31;5089357;28;19960;-71
2023/09/11 01:25:47;;;;;;;;;;;;;;;18.10;100.00;96468.78;5025068;28;19961;-72
2023/09/11 01:28:26;;;;;;;;;;;;;;;18.09;100.00;96477.00;5024994;28;20146;-72
2023/09/11 01:30:54;;;;;;;;;;;;;;;18.09;100.00;96477.00;5075730;28;19973;-71
2023/09/11 01:33:20;;;;;;;;;;;;;;;18.08;100.00;96468.25;5106635;28;19962;-71
2023/09/11 01:35:46;;;;;;;;;;;;;;;18.07;100.00;96465.84;5107077;28;19964;-70
2023/09/11 01:38:11;;;;;;;;;;;;;;;18.05;100.00;96472.22;5072269;28;19962;-70
2023/09/11 01:40:40;;;;;;;;;;;;;;;18.05;100.00;96474.88;5088793;28;19965;-71
2023/09/11 01:43:08;;;;;;;;;;;;;;;18.05;100.00;96476.72;5088972;28;19952;-70
2023/09/11 01:45:35;;;;;;;;;;;;;;;18.03;100.00;96478.84;5088462;28;19949;-70
2023/09/11 01:48:01;;;;;;;;;;;;;;;18.02;100.00;96467.44;5072442;28;19970;-70
2023/09/11 01:50:27;;;;;;;;;;;;;;;18.03;100.00;96481.50;5089022;28;20149;-70
2023/09/11 01:52:53;;;;;;;;;;;;;;;18.01;100.00;96479.09;5044678;28;19972;-77
2023/09/11 01:55:20;;;;;;;;;;;;;;;17.96;100.00;96467.72;5044579;28;20253;-72
2023/09/11 01:57:46;;;;;;;;;;;;;;;17.96;100.00;96460.53;5044423;28;20176;-79
2023/09/11 02:00:12;;;;;;;;;;;;;;;17.95;100.00;96466.88;5044326;28;20035;-79
2023/09/11 02:02:38;;;;;;;;;;;;;;;17.95;100.00;96469.53;5044576;28;20155;-79
2023/09/11 02:05:04;;;;;;;;;;;;;;;17.94;100.00;96469.84;5044190;28;20297;-78
2023/09/11 02:07:30;;;;;;;;;;;;;;;17.91;100.00;96462.38;5044357;28;20119;-79
2023/09/11 02:09:56;;;;;;;;;;;;;;;17.89;100.00;96460.00;5044134;28;19957;-79
2023/09/11 02:12:24;;;;;;;;;;;;;;;17.87;100.00;96464.78;5043997;28;19964;-72
2023/09/11 02:14:50;;;;;;;;;;;;;;;17.84;100.00;96458.13;5044238;28;19946;-72
2023/09/11 02:17:16;;;;;;;;;;;;;;;17.83;100.00;96461.06;5044606;28;19973;-72
2023/09/11 02:19:42;;;;;;;;;;;;;;;17.82;100.00;96465.56;5044298;28;19961;-72
2023/09/11 02:22:08;;;;;;;;;;;;;;;17.80;100.00;96470.28;5043960;28;20043;-71
2023/09/11 02:24:34;;;;;;;;;;;;;;;17.77;100.00;96468.19;5091345;28;20237;-72
2023/09/11 02:27:00;;;;;;;;;;;;;;;17.75;100.00;96469.50;5105995;28;20198;-71
2023/09/11 02:29:25;;;;;;;;;;;;;;;17.70;100.00;96464.19;5105929;28;19962;-70
2023/09/11 02:31:51;;;;;;;;;;;;;;;17.65;100.00;96462.31;5087660;28;19959;-70
2023/09/11 02:34:17;;;;;;;;;;;;;;;17.61;100.00;96459.38;5105796;28;19964;-78
2023/09/11 02:36:43;;;;;;;;;;;;;;;17.59;100.00;96458.06;5106074;28;20016;-78
2023/09/11 02:39:09;;;;;;;;;;;;;;;17.54;100.00;96456.19;5087836;28;20237;-78
2023/09/11 02:41:35;;;;;;;;;;;;;;;17.51;100.00;96467.31;5106009;28;19947;-78
2023/09/11 02:44:01;;;;;;;;;;;;;;;17.51;100.00;96463.88;5105386;28;19959;-77
2023/09/11 02:46:26;;;;;;;;;;;;;;;17.49;100.00;96473.94;5087401;28;20110;-78
2023/09/11 02:48:52;;;;;;;;;;;;;;;17.47;100.00;96463.63;5105450;28;20023;-79
2023/09/11 02:51:19;;;;;;;;;;;;;;;17.45;100.00;96461.22;5105425;28;19950;-79
2023/09/11 02:53:44;;;;;;;;;;;;;;;17.45;100.00;96457.78;5105708;28;19964;-79
2023/09/11 02:56:10;;;;;;;;;;;;;;;17.44;100.00;96464.91;5105580;28;19950;-79
2023/09/11 02:58:36;;;;;;;;;;;;;;;17.43;100.00;96460.69;5105411;28;20003;-79
2023/09/11 03:01:03;;;;;;;;;;;;;;;17.43;100.00;96458.03;5105544;28;20229;-79
2023/09/11 03:03:29;;;;;;;;;;;;;;;17.40;100.00;96447.94;5105567;28;19968;-79
2023/09/11 03:05:56;;;;;;;;;;;;;;;17.40;100.00;96455.91;5105634;28;19933;-78
2023/09/11 03:08:22;;;;;;;;;;;;;;;17.39;100.00;96448.22;5087235;28;19960;-71
2023/09/11 03:10:48;;;;;;;;;;;;;;;17.39;100.00;96445.56;5087221;28;19962;-78
2023/09/11 03:13:14;;;;;;;;;;;;;;;17.36;100.00;96446.88;5086755;28;19968;-78
2023/09/11 03:15:42;;;;;;;;;;;;;;;17.34;100.00;96446.34;5105143;28;19938;-78
2023/09/11 03:18:08;;;;;;;;;;;;;;;17.31;100.00;96444.22;5105360;28;19963;-77
2023/09/11 03:20:34;;;;;;;;;;;;;;;17.31;100.00;96443.44;5105287;28;19954;-78
2023/09/11 03:23:00;;;;;;;;;;;;;;;17.29;100.00;96441.03;5104878;28;19960;-78
2023/09/11 03:25:26;;;;;;;;;;;;;;;17.30;100.00;96444.47;5104863;28;20009;-71
2023/09/11 03:27:52;;;;;;;;;;;;;;;17.29;100.00;96445.53;5087161;28;20034;-78
2023/09/11 03:30:18;;;;;;;;;;;;;;;17.27;100.00;96443.13;5086672;28;19963;-78
2023/09/11 03:32:44;;;;;;;;;;;;;;;17.26;100.00;96441.56;5086361;28;20010;-78
2023/09/11 03:35:10;;;;;;;;;;;;;;;17.23;100.00;96447.38;5104934;28;19960;-80
2023/09/11 03:37:36;;;;;;;;;;;;;;;17.19;100.00;96441.78;5104978;28;20004;-78
2023/09/11 03:40:07;;;;;;;;;;;;;;;17.17;100.00;96443.88;5104994;28;20023;-78
2023/09/11 03:42:33;;;;;;;;;;;;;;;17.17;100.00;96438.59;5104969;28;19948;-77
2023/09/11 03:45:00;;;;;;;;;;;;;;;17.15;100.00;96442.56;5087125;28;19983;-78
2023/09/11 03:47:25;;;;;;;;;;;;;;;17.11;100.00;96439.63;5104938;28;20133;-70
2023/09/11 03:49:51;;;;;;;;;;;;;;;17.06;100.00;96442.28;5070290;28;19967;-70
2023/09/11 03:52:17;;;;;;;;;;;;;;;17.01;100.00;96437.75;5104459;28;19953;-70
2023/09/11 03:54:43;;;;;;;;;;;;;;;16.97;100.00;96435.88;5086395;28;20272;-70
2023/09/11 03:57:09;;;;;;;;;;;;;;;16.91;100.00;96436.91;5104452;28;20181;-70
2023/09/11 03:59:35;;;;;;;;;;;;;;;16.84;100.00;96427.34;5086343;28;19960;-70
2023/09/11 04:02:01;;;;;;;;;;;;;;;16.81;100.00;96429.72;5104389;28;20247;-78
2023/09/11 04:04:27;;;;;;;;;;;;;;;16.78;100.00;96427.56;5104607;28;19952;-70
2023/09/11 04:06:52;;;;;;;;;;;;;;;16.73;100.00;96428.31;5086496;28;20274;-70
2023/09/11 04:09:18;;;;;;;;;;;;;;;16.73;100.00;96436.25;5069669;28;19956;-70
2023/09/11 04:11:44;;;;;;;;;;;;;;;16.73;100.00;96432.81;5070537;28;19948;-70
2023/09/11 04:14:10;;;;;;;;;;;;;;;16.73;100.00;96435.47;5104793;28;19956;-70
2023/09/11 04:16:36;;;;;;;;;;;;;;;16.73;100.00;96428.31;5104610;28;19953;-70
2023/09/11 04:19:01;;;;;;;;;;;;;;;16.75;100.00;96433.34;5104580;28;19959;-70
2023/09/11 04:21:27;;;;;;;;;;;;;;;16.74;100.00;96427.28;5104221;28;19959;-79
2023/09/11 04:23:53;;;;;;;;;;;;;;;16.76;100.00;96421.72;5086224;28;19949;-71
2023/09/11 04:26:19;;;;;;;;;;;;;;;16.75;100.00;96420.91;5086380;28;19981;-71
2023/09/11 04:28:45;;;;;;;;;;;;;;;16.74;100.00;96421.97;5086213;28;20162;-71
2023/09/11 04:31:11;;;;;;;;;;;;;;;16.72;100.00;96421.44;5086174;28;20277;-72
2023/09/11 04:33:36;;;;;;;;;;;;;;;16.70;100.00;96433.34;5086171;28;19966;-71
2023/09/11 04:36:02;;;;;;;;;;;;;;;16.67;100.00;96434.63;5104347;28;19962;-71
2023/09/11 04:38:28;;;;;;;;;;;;;;;16.64;100.00;96425.34;5086217;28;19958;-78
2023/09/11 04:40:56;;;;;;;;;;;;;;;16.63;100.00;96426.41;5104469;28;19954;-70
2023/09/11 04:43:22;;;;;;;;;;;;;;;16.62;100.00;96435.41;5104120;28;20123;-70
2023/09/11 04:45:48;;;;;;;;;;;;;;;16.62;100.00;96438.06;5120491;28;19963;-70
2023/09/11 04:48:14;;;;;;;;;;;;;;;16.60;100.00;96436.72;5104344;28;20133;-70
2023/09/11 04:50:40;;;;;;;;;;;;;;;16.56;100.00;96428.50;5086291;28;19963;-70
2023/09/11 04:53:06;;;;;;;;;;;;;;;16.55;100.00;96429.56;5086389;28;19966;-70
2023/09/11 04:55:31;;;;;;;;;;;;;;;16.52;100.00;96427.41;5104388;28;20184;-71
2023/09/11 04:57:57;;;;;;;;;;;;;;;16.50;100.00;96434.81;5104385;28;20288;-71
2023/09/11 05:00:24;;;;;;;;;;;;;;;16.47;100.00;96429.25;5103864;28;19984;-77
2023/09/11 05:02:50;;;;;;;;;;;;;;;16.44;100.00;96431.34;5104337;28;19950;-76
2023/09/11 05:05:16;;;;;;;;;;;;;;;16.43;100.00;96436.88;5104226;28;19956;-77
2023/09/11 05:07:42;;;;;;;;;;;;;;;16.38;100.00;96435.00;5104128;28;19965;-76
2023/09/11 05:10:08;;;;;;;;;;;;;;;16.38;100.00;96444.81;5107541;28;20183;-76
2023/09/11 05:12:34;;;;;;;;;;;;;;;16.35;100.00;96442.66;5107736;28;19964;-76
2023/09/11 05:15:00;;;;;;;;;;;;;;;16.33;100.00;96437.59;5107881;28;20151;-76
2023/09/11 05:17:26;;;;;;;;;;;;;;;16.31;100.00;96431.78;5107715;28;20258;-77
2023/09/11 05:19:51;;;;;;;;;;;;;;;16.33;100.00;96436.81;5107050;28;19952;-78
2023/09/11 05:22:18;;;;;;;;;;;;;;;16.31;100.00;96441.56;5107717;28;19965;-78
2023/09/11 05:24:44;;;;;;;;;;;;;;;16.31;100.00;96441.56;5107379;28;20244;-78
2023/09/11 05:27:09;;;;;;;;;;;;;;;16.31;100.00;96445.00;5107186;28;19953;-77
2023/09/11 05:29:35;;;;;;;;;;;;;;;16.37;100.00;96445.84;5107371;28;19962;-78
2023/09/11 05:32:02;;;;;;;;;;;;;;;16.61;100.00;96441.78;5088954;28;19965;-77
2023/09/11 05:34:28;;;;;;;;;;;;;;;16.99;100.00;96434.56;5107083;28;19973;-78
2023/09/11 05:36:54;;;;;;;;;;;;;;;17.37;100.00;96429.91;5107121;28;19954;-79
2023/09/11 05:39:20;;;;;;;;;;;;;;;17.73;100.00;96427.34;5106894;28;19998;-79
2023/09/11 05:41:46;;;;;;;;;;;;;;;18.07;100.00;96416.22;5088506;28;19960;-77
2023/09/11 05:44:12;;;;;;;;;;;;;;;18.40;100.00;96414.84;5089286;28;19944;-78
2023/09/11 05:46:38;;;;;;;;;;;;;;;18.74;100.00;96406.28;5106677;28;20240;-79
2023/09/11 05:49:03;;;;;;;;;;;;;;;19.04;100.00;96407.25;5105713;28;19963;-79
2023/09/11 05:51:29;;;;;;;;;;;;;;;19.32;100.00;96403.13;5106047;28;19957;-79
2023/09/11 05:53:55;;;;;;;;;;;;;;;19.62;100.00;96412.78;5106457;28;19970;-70
2023/09/11 05:56:21;;;;;;;;;;;;;;;19.91;100.00;96403.28;5106257;28;19975;-79
2023/09/11 05:58:47;;;;;;;;;;;;;;;20.17;100.00;96399.34;5106495;28;19955;-78
2023/09/11 06:01:16;;;;;;;;;;;;;;;20.40;100.00;96383.69;5106146;28;19971;-79
2023/09/11 06:03:42;;;;;;;;;;;;;;;20.62;100.00;96384.00;5088070;28;19956;-79
2023/09/11 06:06:08;;;;;;;;;;;;;;;20.82;98.95;96382.97;5106701;28;19959;-78
2023/09/11 06:08:34;;;;;;;;;;;;;;;21.01;97.93;96387.53;5106643;28;19963;-78
2023/09/11 06:11:00;;;;;;;;;;;;;;;21.13;97.09;96379.13;5106070;28;19965;-78
2023/09/11 06:13:26;;;;;;;;;;;;;;;21.24;96.16;96380.56;5106489;28;19981;-71
2023/09/11 06:15:52;;;;;;;;;;;;;;;21.31;96.07;96381.00;5106733;28;19964;-71
2023/09/11 06:18:18;;;;;;;;;;;;;;;21.38;95.98;96381.44;5106447;28;19949;-71
2023/09/11 06:20:44;;;;;;;;;;;;;;;21.41;95.55;96383.53;5086937;28;19957;-70
2023/09/11 06:23:13;;;;;;;;;;;;;;;21.45;95.46;96381.91;5106122;28;19954;-70
2023/09/11 06:25:38;;;;;;;;;;;;;;;21.52;94.98;96384.19;5106060;28;19964;-70
2023/09/11 06:28:05;;;;;;;;;;;;;;;21.57;94.84;96386.81;5071559;28;19956;-70
2023/09/11 06:30:31;;;;;;;;;;;;;;;21.61;94.85;96382.47;5106036;28;19956;-76
2023/09/11 06:32:57;;;;;;;;;;;;;;;21.64;96.07;96383.78;5106251;28;19957;-70
2023/09/11 06:35:23;;;;;;;;;;;;;;;21.65;94.89;96382.69;5087845;28;20025;-71
2023/09/11 06:37:49;;;;;;;;;;;;;;;21.63;93.77;96372.31;5087727;28;19980;-71
2023/09/11 06:40:15;;;;;;;;;;;;;;;21.62;94.10;96375.25;5106023;28;19959;-71
2023/09/11 06:42:41;;;;;;;;;;;;;;;21.61;94.04;96371.81;5087470;28;19942;-71
2023/09/11 06:45:07;;;;;;;;;;;;;;;21.66;95.77;96387.72;5088290;28;19969;-71
2023/09/11 06:47:33;;;;;;;;;;;;;;;21.69;94.88;96381.81;5105920;28;19949;-78
2023/09/11 06:49:59;;;;;;;;;;;;;;;21.75;95.52;96382.53;5106091;28;20276;-77
2023/09/11 06:52:25;;;;;;;;;;;;;;;21.84;95.30;96377.34;5087911;28;20252;-79
2023/09/11 06:54:51;;;;;;;;;;;;;;;21.88;94.28;96373.78;5105536;28;19967;-77
2023/09/11 06:57:17;;;;;;;;;;;;;;;21.87;94.05;96371.41;5105431;28;19961;-80
2023/09/11 06:59:43;;;;;;;;;;;;;;;21.87;95.39;96382.06;5087250;28;19963;-78
2023/09/11 07:02:08;;;;;;;;;;;;;;;21.95;94.85;96384.09;5105503;28;19949;-78
2023/09/11 07:04:34;;;;;;;;;;;;;;;22.05;94.75;96388.47;5105454;28;19997;-77
2023/09/11 07:07:00;;;;;;;;;;;;;;;22.16;94.38;96389.09;5105586;28;19949;-71
2023/09/11 07:09:26;;;;;;;;;;;;;;;22.20;94.45;96382.88;5087226;28;20004;-79
2023/09/11 07:11:56;;;;;;;;;;;;;;;22.25;93.74;96382.00;5105362;28;19988;-78
2023/09/11 07:14:23;;;;;;;;;;;;;;;22.32;94.23;96377.06;5105598;28;20174;-79
2023/09/11 07:16:49;;;;;;;;;;;;;;;22.38;93.78;96377.75;5105417;28;19952;-78
2023/09/11 07:19:15;;;;;;;;;;;;;;;22.43;93.81;96378.47;5086763;28;19956;-79
2023/09/11 07:21:41;;;;;;;;;;;;;;;22.50;94.31;96383.41;5105285;28;19951;-79
2023/09/11 07:24:07;;;;;;;;;;;;;;;22.58;93.99;96377.38;5105426;28;20220;-78
2023/09/11 07:26:33;;;;;;;;;;;;;;;22.54;91.82;96380.97;5105026;28;19972;-71
2023/09/11 07:29:02;;;;;;;;;;;;;;;22.45;94.77;96389.66;5105264;28;20277;-77
2023/09/11 07:31:28;;;;;;;;;;;;;;;22.47;95.39;96390.16;5086312;28;19963;-77
2023/09/11 07:33:54;;;;;;;;;;;;;;;22.50;94.99;96388.75;5086551;28;19963;-78
2023/09/11 07:36:20;;;;;;;;;;;;;;;22.54;95.05;96399.66;5105145;28;19990;-78
2023/09/11 07:38:46;;;;;;;;;;;;;;;22.55;95.20;96388.66;5104988;28;19969;-77
2023/09/11 07:41:13;;;;;;;;;;;;;;;22.63;95.48;96392.53;5105179;28;20120;-77
2023/09/11 07:43:39;;;;;;;;;;;;;;;22.71;95.69;96394.50;5104513;28;20138;-78
2023/09/11 07:46:05;;;;;;;;;;;;;;;22.84;94.82;96391.03;5105038;28;19952;-71
2023/09/11 07:48:31;;;;;;;;;;;;;;;22.94;93.83;96387.38;5104744;28;19954;-71
2023/09/11 07:50:57;;;;;;;;;;;;;;;23.04;93.23;96375.72;5086973;28;19958;-70
2023/09/11 07:53:23;;;;;;;;;;;;;;;23.06;92.07;96368.19;5104598;28;19961;-71
2023/09/11 07:55:50;;;;;;;;;;;;;;;23.04;91.82;96373.81;5086060;28;20480;-70
2023/09/11 07:58:16;;;;;;;;;;;;;;;23.09;92.23;96367.56;5086727;28;19958;-70
2023/09/11 08:00:42;;;;;;;;;;;;;;;23.15;90.86;96370.94;5104629;28;19957;-71
2023/09/11 08:03:08;;;;;;;;;;;;;;;23.16;90.08;96364.47;5069602;28;20089;-72
2023/09/11 08:05:34;;;;;;;;;;;;;;;23.17;90.72;96363.41;5069650;28;19992;-70
2023/09/11 08:08:02;;;;;;;;;;;;;;;23.22;90.84;96368.63;5086526;28;20027;-71
2023/09/11 08:10:28;;;;;;;;;;;;;;;23.29;90.26;96363.69;5104637;28;19937;-71
2023/09/11 08:12:54;;;;;;;;;;;;;;;23.33;89.46;96367.34;5104694;28;20115;-71
2023/09/11 08:15:20;;;;;;;;;;;;;;;23.42;90.35;96373.53;5086141;28;19969;-71
2023/09/11 08:17:46;;;;;;;;;;;;;;;23.53;89.34;96368.75;5104334;28;19956;-71
2023/09/11 08:20:12;;;;;;;;;;;;;;;23.57;90.13;96374.28;5086507;28;20236;-71
2023/09/11 08:22:39;;;;;;;;;;;;;;;23.64;89.56;96380.78;5104031;28;19961;-78
2023/09/11 08:25:05;;;;;;;;;;;;;;;23.72;89.72;96371.25;5104349;28;19953;-78
2023/09/11 08:27:31;;;;;;;;;;;;;;;;;;5104383;28;20238;-79
2023/09/11 08:29:57;;;;;;;;;;;;;;;23.88;88.54;96366.34;5104603;28;19996;-78
2023/09/11 08:32:23;;;;;;;;;;;;;;;23.94;86.97;96364.31;5104527;28;19958;-79
2023/09/11 08:34:49;;;;;;;;;;;;;;;23.96;85.71;96349.56;5104398;28;20020;-78
2023/09/11 08:37:15;;;;;;;;;;;;;;;23.96;89.68;96372.84;5104390;28;19954;-78
2023/09/11 08:39:41;;;;;;;;;;;;;;;24.04;88.59;96367.56;5104366;28;19939;-78
2023/09/11 08:42:08;;;;;;;;;;;;;;;24.13;89.29;96374.84;5103862;28;20258;-72
2023/09/11 08:44:34;;;;;;;;;;;;;;;24.26;89.19;96365.94;5106980;28;19948;-72
2023/09/11 08:47:03;;;;;;;;;;;;;;;24.38;88.48;96354.63;5108420;28;20235;-72
2023/09/11 08:49:32;;;;;;;;;;;;;;;24.51;86.68;96349.19;5090153;28;19960;-71
2023/09/11 08:51:59;;;;;;;;;;;;;;;24.61;86.58;96342.78;5089645;28;20159;-72
2023/09/11 08:54:29;;;;;;;;;;;;;;;24.64;85.10;96333.31;5089843;28;19964;-71
2023/09/11 08:56:55;;;;;;;;;;;;;;;24.68;84.86;96337.75;5108058;28;19953;-75
2023/09/11 08:59:21;;;;;;;;;;;;;;;24.81;88.34;96352.13;5107954;28;19952;-71
2023/09/11 09:01:48;;;;;;;;;;;;;;;24.92;86.86;96350.75;5089656;28;19965;-71
2023/09/11 09:04:15;;;;;;;;;;;;;;;24.99;86.53;96346.78;5108005;28;19957;-70
2023/09/11 09:06:43;;;;;;;;;;;;;;;25.03;84.19;96329.78;5108003;28;19948;-71
2023/09/11 09:09:09;;;;;;;;;;;;;;;25.05;84.74;96337.50;5107640;28;19960;-71
2023/09/11 09:11:36;;;;;;;;;;;;;;;25.03;84.03;96334.31;5073072;28;19957;-70
2023/09/11 09:14:06;;;;;;;;;;;;;;;25.02;84.83;96344.28;5107634;28;20156;-71
2023/09/11 09:16:32;;;;;;;;;;;;;;;25.05;86.17;96351.72;5089533;28;19959;-77
2023/09/11 09:18:57;;;;;;;;;;;;;;;25.10;85.10;96334.66;5107421;28;19988;-76
2023/09/11 09:21:25;;;;;;;;;;;;;;;25.12;82.88;96325.19;5089434;28;19959;-77
2023/09/11 09:23:54;;;;;;;;;;;;;;;25.12;83.87;96335.94;5107401;28;19958;-76
2023/09/11 09:26:21;;;;;;;;;;;;;;;25.18;82.14;96319.66;5107412;28;19958;-78
2023/09/11 09:28:48;;;;;;;;;;;;;;;25.24;85.12;96339.91;5107575;28;20234;-76
2023/09/11 09:31:23;;;;;;;;;;;;;;;25.28;85.27;96338.16;5107488;28;19961;-77
2023/09/11 09:33:53;;;;;;;;;;;;;;;25.32;84.43;96339.13;5107357;28;19942;-76
2023/09/11 09:36:19;;;;;;;;;;;;;;;25.38;85.93;96339.75;5106943;28;19963;-76
2023/09/11 09:38:45;;;;;;;;;;;;;;;25.43;85.24;96332.34;5107275;28;20026;-77
2023/09/11 09:41:12;;;;;;;;;;;;;;;25.49;83.01;96317.66;5107387;28;19963;-77
2023/09/11 09:43:38;;;;;;;;;;;;;;;25.54;83.95;96321.28;5106891;28;19959;-77
2023/09/11 09:46:20;;;;;;;;;;;;;;;25.59;84.33;96321.91;5106870;28;19981;-76
2023/09/11 09:48:45;;;;;;;;;;;;;;;25.65;84.34;96327.91;5107002;28;19965;-76
2023/09/11 09:51:11;;;;;;;;;;;;;;;25.66;83.16;96311.47;5107038;28;19936;-72
2023/09/11 09:53:42;;;;;;;;;;;;;;;25.72;82.84;96310.19;5071771;28;19963;-72
2023/09/11 09:56:10;;;;;;;;;;;;;;;25.79;83.44;96308.94;5088399;28;20258;-77
2023/09/11 09:58:43;;;;;;;;;;;;;;;25.85;81.65;96297.69;5106902;28;20230;-77
2023/09/11 10:01:10;;;;;;;;;;;;;;;25.90;80.79;96294.84;5106498;28;19963;-77
2023/09/11 10:03:50;;;;;;;;;;;;;;;25.95;76.81;96274.28;5106444;28;19956;-76
2023/09/11 10:06:17;;;;;;;;;;;;;;;25.97;77.37;96283.59;5106580;28;19960;-76
2023/09/11 10:08:43;;;;;;;;;;;;;;;26.04;80.21;96299.22;5106602;28;19962;-77
2023/09/11 10:11:28;;;;;;;;;;;;;;;26.09;75.77;96272.97;5106732;28;19967;-71
2023/09/11 10:13:56;;;;;;;;;;;;;;;26.13;79.11;96303.47;5106097;28;19959;-70
2023/09/11 10:16:23;;;;;;;;;;;;;;;26.17;79.40;96303.63;5071508;28;19987;-72
2023/09/11 10:18:51;;;;;;;;;;;;;;;26.22;79.55;96308.81;5088699;28;19946;-71
2023/09/11 10:21:18;;;;;;;;;;;;;;;26.29;79.80;96303.75;5106709;28;19961;-71
2023/09/11 10:23:44;;;;;;;;;;;;;;;26.40;79.71;96298.78;5087940;28;19960;-71
2023/09/11 10:26:13;;;;;;;;;;;;;;;26.55;81.58;96310.88;5088368;28;20153;-71
2023/09/11 10:28:40;;;;;;;;;;;;;;;26.70;78.71;96304.19;5087905;28;19950;-72
2023/09/11 10:31:09;;;;;;;;;;;;;;;26.84;78.27;96295.88;5088124;28;19964;-72
2023/09/11 10:33:36;;;;;;;;;;;;;;;26.99;78.73;96300.69;5087544;28;19961;-72
2023/09/11 10:36:04;;;;;;;;;;;;;;;27.16;77.03;96293.59;5087700;28;19960;-72
2023/09/11 10:38:32;;;;;;;;;;;;;;;27.26;69.61;96272.47;5106132;28;20226;-72
2023/09/11 10:40:59;;;;;;;;;;;;;;;27.40;74.10;96295.63;5106081;28;19971;-72
2023/09/11 10:43:25;;;;;;;;;;;;;;;27.56;72.87;96296.59;5087716;28;19952;-72
2023/09/11 10:45:52;;;;;;;;;;;;;;;27.71;71.71;96287.88;5105932;28;19948;-72
2023/09/11 10:48:25;;;;;;;;;;;;;;;27.90;69.21;96279.31;5088038;28;19965;-75
2023/09/11 10:50:51;;;;;;;;;;;;;;;28.04;70.23;96284.41;5105558;28;19951;-78
2023/09/11 10:53:17;;;;;;;;;;;;;;;28.20;69.40;96276.44;5105478;28;19963;-77
2023/09/11 10:55:43;;;;;;;;;;;;;;;28.41;69.73;96273.66;5105373;28;19968;-78
2023/09/11 10:58:09;;;;;;;;;;;;;;;28.58;68.71;96269.94;5087378;28;19963;-79
2023/09/11 11:00:38;;;;;;;;;;;;;;;28.66;62.61;96265.53;5105293;28;19997;-78
2023/09/11 11:03:04;;;;;;;;;;;;;;;28.74;65.46;96272.72;5105504;28;19958;-78
2023/09/11 11:05:34;;;;;;;;;;;;;;;28.88;66.64;96278.56;5087011;28;19958;-71
2023/09/11 11:08:01;;;;;;;;;;;;;;;29.08;68.85;96276.84;5105305;28;19957;-72
2023/09/11 11:10:27;;;;;;;;;;;;;;;29.28;65.35;96271.63;5070505;28;19960;-73
2023/09/11 11:13:06;;;;;;;;;;;;;;;29.43;64.46;96265.47;5105327;28;20006;-72
2023/09/11 11:15:33;;;;;;;;;;;;;;;29.57;64.28;96265.06;5105261;28;19965;-72
2023/09/11 11:18:09;;;;;;;;;;;;;;;29.75;63.47;96258.22;5105077;28;19961;-72
2023/09/11 11:20:35;;;;;;;;;;;;;;;29.88;60.97;96250.84;5105409;28;19958;-72
2023/09/11 11:23:09;;;;;;;;;;;;;;;29.90;62.82;96258.59;5086845;28;19960;-72
2023/09/11 11:25:35;;;;;;;;;;;;;;;29.91;60.00;96260.94;5070251;28;19969;-71
2023/09/11 11:28:14;;;;;;;;;;;;;;;29.90;62.59;96269.41;5125781;23;19965;-69
2023/09/11 11:30:40;;;;;;;;;;;;;;;30.01;63.62;96277.78;5146356;27;19963;-69
2023/09/11 11:33:07;;;;;;;;;;;;;;;30.08;65.10;96272.56;5146014;27;19958;-69
2023/09/11 11:35:33;;;;;;;;;;;;;;;30.13;61.35;96275.00;5160760;27;19989;-69
2023/09/11 11:38:00;;;;;;;;;;;;;;;30.14;62.12;96282.00;5166958;27;20132;-69
2023/09/11 11:40:26;;;;;;;;;;;;;;;30.20;61.40;96269.78;5166898;27;20279;-70
2023/09/11 11:42:52;;;;;;;;;;;;;;;30.33;60.91;96270.50;5166434;27;19939;-71
2023/09/11 11:45:18;;;;;;;;;;;;;;;30.49;61.79;96273.97;5167005;27;19962;-73
2023/09/11 11:47:44;;;;;;;;;;;;;;;30.66;61.47;96270.09;5166446;27;19955;-72
2023/09/11 11:50:11;;;;;;;;;;;;;;;30.81;60.85;96262.28;5166679;27;19992;-72
2023/09/11 11:52:36;;;;;;;;;;;;;;;30.80;55.45;96252.59;5166385;27;19975;-72
2023/09/11 11:55:16;;;;;;;;;;;;;;;30.68;56.42;96267.00;5166426;27;20241;-72
2023/09/11 11:57:42;;;;;;;;;;;;;;;30.54;53.20;96259.38;5166809;27;19954;-72
2023/09/11 12:00:10;;;;;;;;;;;;;;;30.47;57.10;96268.13;5166606;27;20042;-69
2023/09/11 12:02:36;;;;;;;;;;;;;;;30.44;56.23;96273.44;5148042;27;19952;-72
2023/09/11 12:05:10;;;;;;;;;;;;;;;30.57;54.77;96261.38;5147991;27;20029;-82
2023/09/11 12:07:36;;;;;;;;;;;;;;;30.69;57.40;96265.88;5166150;27;20132;-81
2023/09/11 12:10:02;;;;;;;;;;;;;;;30.83;57.33;96270.84;5131333;27;19964;-81
2023/09/11 12:12:28;;;;;;;;;;;;;;;30.99;57.62;96268.88;5166394;27;19958;-81
2023/09/11 12:14:58;;;;;;;;;;;;;;;31.10;56.29;96264.47;5166076;27;19971;-82
2023/09/11 12:17:24;;;;;;;;;;;;;;;31.20;56.28;96262.34;5148415;27;19961;-82
2023/09/11 12:19:49;;;;;;;;;;;;;;;31.30;55.02;96261.75;5170496;27;19960;-79
2023/09/11 12:22:15;;;;;;;;;;;;;;;31.33;51.64;96261.03;5170568;27;19955;-81
2023/09/11 12:24:41;;;;;;;;;;;;;;;31.36;55.30;96269.25;5152178;27;19960;-82
2023/09/11 12:27:07;;;;;;;;;;;;;;;31.40;51.58;96260.41;5170137;27;19951;-82
2023/09/11 12:29:33;;;;;;;;;;;;;;;31.49;55.86;96263.69;5170697;27;20001;-82
2023/09/11 12:31:59;;;;;;;;;;;;;;;31.62;56.65;96261.63;5170649;27;19956;-81
2023/09/11 12:34:27;;;;;;;;;;;;;;;31.58;48.95;96247.22;5170345;27;20073;-80
2023/09/11 12:36:53;;;;;;;;;;;;;;;31.52;55.00;96262.97;5169978;27;19944;-70
2023/09/11 12:39:19;;;;;;;;;;;;;;;31.53;55.33;96253.72;5170025;27;19998;-71
2023/09/11 12:41:45;;;;;;;;;;;;;;;31.60;54.83;96248.41;5169948;27;19955;-71